sensor_id;sensor_type;location;lat;lon;timestamp;P1;durP1;ratioP1;P2;durP2;ratioP2
545;SDS011;259;53.304;9.816;2023-02-01T00:02:22;2.83;;;1.80;;
545;SDS011;259;53.304;9.816;2023-02-01T00:04:48;2.50;;;1.53;;
545;SDS011;259;53.304;9.816;2023-02-01T00:07:13;2.70;;;1.70;;
545;SDS011;259;53.304;9.816;2023-02-01T00:09:39;2.70;;;2.10;;
545;SDS011;259;53.304;9.816;2023-02-01T00:12:05;2.60;;;1.80;;
545;SDS011;259;53.304;9.816;2023-02-01T00:14:30;3.37;;;2.17;;
545;SDS011;259;53.304;9.816;2023-02-01T00:17:03;4.97;;;2.00;;
545;SDS011;259;53.304;9.816;2023-02-01T00:19:32;4.27;;;2.57;;
545;SDS011;259;53.304;9.816;2023-02-01T00:21:58;4.20;;;2.40;;
545;SDS011;259;53.304;9.816;2023-02-01T00:24:24;2.60;;;1.70;;
545;SDS011;259;53.304;9.816;2023-02-01T00:26:50;2.70;;;1.77;;
545;SDS011;259;53.304;9.816;2023-02-01T00:29:17;2.60;;;1.60;;
545;SDS011;259;53.304;9.816;2023-02-01T00:31:44;2.63;;;1.67;;
545;SDS011;259;53.304;9.816;2023-02-01T00:34:14;2.60;;;1.87;;
545;SDS011;259;53.304;9.816;2023-02-01T00:36:41;3.33;;;2.33;;
545;SDS011;259;53.304;9.816;2023-02-01T00:39:08;3.70;;;1.70;;
545;SDS011;259;53.304;9.816;2023-02-01T00:41:34;3.30;;;1.77;;
545;SDS011;259;53.304;9.816;2023-02-01T00:44:00;4.03;;;1.90;;
545;SDS011;259;53.304;9.816;2023-02-01T00:46:27;4.43;;;1.83;;
545;SDS011;259;53.304;9.816;2023-02-01T00:48:53;2.63;;;1.80;;
545;SDS011;259;53.304;9.816;2023-02-01T00:51:20;2.97;;;1.90;;
545;SDS011;259;53.304;9.816;2023-02-01T00:53:48;2.00;;;1.83;;
545;SDS011;259;53.304;9.816;2023-02-01T00:56:14;5.07;;;2.00;;
545;SDS011;259;53.304;9.816;2023-02-01T00:58:40;3.53;;;1.63;;
545;SDS011;259;53.304;9.816;2023-02-01T01:01:08;3.50;;;1.50;;
545;SDS011;259;53.304;9.816;2023-02-01T01:03:43;3.73;;;1.60;;
545;SDS011;259;53.304;9.816;2023-02-01T01:06:14;4.07;;;1.70;;
545;SDS011;259;53.304;9.816;2023-02-01T01:08:42;5.57;;;1.70;;
545;SDS011;259;53.304;9.816;2023-02-01T01:11:10;5.27;;;2.00;;
545;SDS011;259;53.304;9.816;2023-02-01T01:13:43;3.47;;;1.93;;
545;SDS011;259;53.304;9.816;2023-02-01T01:16:11;2.90;;;1.63;;
545;SDS011;259;53.304;9.816;2023-02-01T01:18:37;6.30;;;1.90;;
545;SDS011;259;53.304;9.816;2023-02-01T01:21:06;3.37;;;2.10;;
545;SDS011;259;53.304;9.816;2023-02-01T01:23:34;2.73;;;1.53;;
545;SDS011;259;53.304;9.816;2023-02-01T01:26:00;2.67;;;1.40;;
545;SDS011;259;53.304;9.816;2023-02-01T01:28:31;4.27;;;2.37;;
545;SDS011;259;53.304;9.816;2023-02-01T01:30:57;4.40;;;1.80;;
545;SDS011;259;53.304;9.816;2023-02-01T01:33:22;2.97;;;1.80;;
545;SDS011;259;53.304;9.816;2023-02-01T01:35:48;2.70;;;1.37;;
545;SDS011;259;53.304;9.816;2023-02-01T01:38:14;4.97;;;2.07;;
545;SDS011;259;53.304;9.816;2023-02-01T01:40:39;4.30;;;2.07;;
545;SDS011;259;53.304;9.816;2023-02-01T01:43:14;4.00;;;1.97;;
545;SDS011;259;53.304;9.816;2023-02-01T01:45:44;4.30;;;1.60;;
545;SDS011;259;53.304;9.816;2023-02-01T01:48:25;4.60;;;1.83;;
545;SDS011;259;53.304;9.816;2023-02-01T01:51:00;4.70;;;2.00;;
545;SDS011;259;53.304;9.816;2023-02-01T01:53:35;3.10;;;2.10;;
545;SDS011;259;53.304;9.816;2023-02-01T01:56:10;4.43;;;1.90;;
545;SDS011;259;53.304;9.816;2023-02-01T01:58:36;3.60;;;1.70;;
545;SDS011;259;53.304;9.816;2023-02-01T02:01:02;5.47;;;2.53;;
545;SDS011;259;53.304;9.816;2023-02-01T02:03:30;4.40;;;2.00;;
545;SDS011;259;53.304;9.816;2023-02-01T02:06:01;4.27;;;1.93;;
545;SDS011;259;53.304;9.816;2023-02-01T02:08:29;2.57;;;2.03;;
545;SDS011;259;53.304;9.816;2023-02-01T02:10:54;5.27;;;2.27;;
545;SDS011;259;53.304;9.816;2023-02-01T02:13:40;5.10;;;2.60;;
545;SDS011;259;53.304;9.816;2023-02-01T02:21:53;3.17;;;1.70;;
545;SDS011;259;53.304;9.816;2023-02-01T02:24:56;2.90;;;1.50;;
545;SDS011;259;53.304;9.816;2023-02-01T02:31:07;3.03;;;1.77;;
545;SDS011;259;53.304;9.816;2023-02-01T02:37:18;2.60;;;1.50;;
545;SDS011;259;53.304;9.816;2023-02-01T02:43:10;3.33;;;1.97;;
545;SDS011;259;53.304;9.816;2023-02-01T02:46:39;3.53;;;1.73;;
545;SDS011;259;53.304;9.816;2023-02-01T02:49:23;2.83;;;1.40;;
545;SDS011;259;53.304;9.816;2023-02-01T02:52:18;4.57;;;1.67;;
545;SDS011;259;53.304;9.816;2023-02-01T02:55:03;2.30;;;1.60;;
545;SDS011;259;53.304;9.816;2023-02-01T02:57:33;5.10;;;2.17;;
545;SDS011;259;53.304;9.816;2023-02-01T03:00:27;6.07;;;1.80;;
545;SDS011;259;53.304;9.816;2023-02-01T03:03:15;3.97;;;1.60;;
545;SDS011;259;53.304;9.816;2023-02-01T03:05:59;4.00;;;2.20;;
545;SDS011;259;53.304;9.816;2023-02-01T03:08:26;4.63;;;2.40;;
545;SDS011;259;53.304;9.816;2023-02-01T03:10:58;3.23;;;1.70;;
545;SDS011;259;53.304;9.816;2023-02-01T03:16:15;3.43;;;1.60;;
545;SDS011;259;53.304;9.816;2023-02-01T03:19:00;3.10;;;1.80;;
545;SDS011;259;53.304;9.816;2023-02-01T03:21:41;3.23;;;1.83;;
545;SDS011;259;53.304;9.816;2023-02-01T03:24:16;2.80;;;1.37;;
545;SDS011;259;53.304;9.816;2023-02-01T03:26:58;3.23;;;2.03;;
545;SDS011;259;53.304;9.816;2023-02-01T03:29:36;5.30;;;2.33;;
545;SDS011;259;53.304;9.816;2023-02-01T03:32:16;2.80;;;1.87;;
545;SDS011;259;53.304;9.816;2023-02-01T03:34:42;3.90;;;1.77;;
545;SDS011;259;53.304;9.816;2023-02-01T03:37:09;2.37;;;1.73;;
545;SDS011;259;53.304;9.816;2023-02-01T03:39:48;5.23;;;1.67;;
545;SDS011;259;53.304;9.816;2023-02-01T03:45:00;4.73;;;1.93;;
545;SDS011;259;53.304;9.816;2023-02-01T03:47:40;5.13;;;2.00;;
545;SDS011;259;53.304;9.816;2023-02-01T03:50:12;6.77;;;2.40;;
545;SDS011;259;53.304;9.816;2023-02-01T03:52:43;3.33;;;2.07;;
545;SDS011;259;53.304;9.816;2023-02-01T03:55:32;4.33;;;1.67;;
545;SDS011;259;53.304;9.816;2023-02-01T04:00:36;2.63;;;1.83;;
545;SDS011;259;53.304;9.816;2023-02-01T04:03:02;2.13;;;1.30;;
545;SDS011;259;53.304;9.816;2023-02-01T04:05:30;1.77;;;1.43;;
545;SDS011;259;53.304;9.816;2023-02-01T04:07:56;2.17;;;1.20;;
545;SDS011;259;53.304;9.816;2023-02-01T04:10:22;2.20;;;1.13;;
545;SDS011;259;53.304;9.816;2023-02-01T04:12:48;4.13;;;1.30;;
545;SDS011;259;53.304;9.816;2023-02-01T04:15:14;1.70;;;1.17;;
545;SDS011;259;53.304;9.816;2023-02-01T04:17:39;4.47;;;1.83;;
545;SDS011;259;53.304;9.816;2023-02-01T04:20:05;2.90;;;1.30;;
545;SDS011;259;53.304;9.816;2023-02-01T04:22:31;2.07;;;1.20;;
545;SDS011;259;53.304;9.816;2023-02-01T04:24:57;1.87;;;1.30;;
545;SDS011;259;53.304;9.816;2023-02-01T04:27:23;2.00;;;1.33;;
545;SDS011;259;53.304;9.816;2023-02-01T04:29:48;2.50;;;1.20;;
545;SDS011;259;53.304;9.816;2023-02-01T04:32:15;1.60;;;1.03;;
545;SDS011;259;53.304;9.816;2023-02-01T04:34:42;3.17;;;1.30;;
545;SDS011;259;53.304;9.816;2023-02-01T04:37:07;3.20;;;1.50;;
545;SDS011;259;53.304;9.816;2023-02-01T04:39:33;1.83;;;1.30;;
545;SDS011;259;53.304;9.816;2023-02-01T04:41:59;1.23;;;1.13;;
545;SDS011;259;53.304;9.816;2023-02-01T04:44:24;2.13;;;1.40;;
545;SDS011;259;53.304;9.816;2023-02-01T04:46:50;1.87;;;1.30;;
545;SDS011;259;53.304;9.816;2023-02-01T04:49:16;1.80;;;1.50;;
545;SDS011;259;53.304;9.816;2023-02-01T04:51:42;3.20;;;1.10;;
545;SDS011;259;53.304;9.816;2023-02-01T04:54:08;1.73;;;1.07;;
545;SDS011;259;53.304;9.816;2023-02-01T04:56:36;3.47;;;1.17;;
545;SDS011;259;53.304;9.816;2023-02-01T04:59:03;2.67;;;1.00;;
545;SDS011;259;53.304;9.816;2023-02-01T05:01:29;1.47;;;0.90;;
545;SDS011;259;53.304;9.816;2023-02-01T05:03:54;1.60;;;1.00;;
545;SDS011;259;53.304;9.816;2023-02-01T05:06:20;1.67;;;0.90;;
545;SDS011;259;53.304;9.816;2023-02-01T05:08:46;1.07;;;0.83;;
545;SDS011;259;53.304;9.816;2023-02-01T05:11:12;2.10;;;1.40;;
545;SDS011;259;53.304;9.816;2023-02-01T05:13:56;2.70;;;1.23;;
545;SDS011;259;53.304;9.816;2023-02-01T05:16:23;2.33;;;1.23;;
545;SDS011;259;53.304;9.816;2023-02-01T05:18:49;1.63;;;0.93;;
545;SDS011;259;53.304;9.816;2023-02-01T05:21:14;1.67;;;1.10;;
545;SDS011;259;53.304;9.816;2023-02-01T05:23:40;1.90;;;1.20;;
545;SDS011;259;53.304;9.816;2023-02-01T05:26:24;1.57;;;1.00;;
545;SDS011;259;53.304;9.816;2023-02-01T05:28:50;1.10;;;0.93;;
545;SDS011;259;53.304;9.816;2023-02-01T05:31:16;1.97;;;1.00;;
545;SDS011;259;53.304;9.816;2023-02-01T05:33:42;1.23;;;1.00;;
545;SDS011;259;53.304;9.816;2023-02-01T05:36:08;1.67;;;0.90;;
545;SDS011;259;53.304;9.816;2023-02-01T05:38:34;2.07;;;0.97;;
545;SDS011;259;53.304;9.816;2023-02-01T05:40:59;2.23;;;1.07;;
545;SDS011;259;53.304;9.816;2023-02-01T05:43:25;1.50;;;1.00;;
545;SDS011;259;53.304;9.816;2023-02-01T05:45:53;1.10;;;0.70;;
545;SDS011;259;53.304;9.816;2023-02-01T05:48:19;1.20;;;0.80;;
545;SDS011;259;53.304;9.816;2023-02-01T05:50:45;1.50;;;1.10;;
545;SDS011;259;53.304;9.816;2023-02-01T05:53:11;1.10;;;1.00;;
545;SDS011;259;53.304;9.816;2023-02-01T05:55:37;2.07;;;0.67;;
545;SDS011;259;53.304;9.816;2023-02-01T05:58:03;1.23;;;0.70;;
545;SDS011;259;53.304;9.816;2023-02-01T06:00:30;1.10;;;0.90;;
545;SDS011;259;53.304;9.816;2023-02-01T06:02:56;2.97;;;0.83;;
545;SDS011;259;53.304;9.816;2023-02-01T06:05:22;1.77;;;0.90;;
545;SDS011;259;53.304;9.816;2023-02-01T06:07:48;1.20;;;1.00;;
545;SDS011;259;53.304;9.816;2023-02-01T06:10:15;2.30;;;1.13;;
545;SDS011;259;53.304;9.816;2023-02-01T06:12:42;1.63;;;0.80;;
545;SDS011;259;53.304;9.816;2023-02-01T06:15:10;0.70;;;0.70;;
545;SDS011;259;53.304;9.816;2023-02-01T06:17:37;1.03;;;0.93;;
545;SDS011;259;53.304;9.816;2023-02-01T06:20:04;1.30;;;0.93;;
545;SDS011;259;53.304;9.816;2023-02-01T06:22:31;1.07;;;1.00;;
545;SDS011;259;53.304;9.816;2023-02-01T06:24:57;1.43;;;0.67;;
545;SDS011;259;53.304;9.816;2023-02-01T06:27:24;1.00;;;0.60;;
545;SDS011;259;53.304;9.816;2023-02-01T06:29:50;2.00;;;0.80;;
545;SDS011;259;53.304;9.816;2023-02-01T06:32:16;0.73;;;0.70;;
545;SDS011;259;53.304;9.816;2023-02-01T06:34:42;1.73;;;0.93;;
545;SDS011;259;53.304;9.816;2023-02-01T06:37:08;7.70;;;1.30;;
545;SDS011;259;53.304;9.816;2023-02-01T06:39:35;17.27;;;5.50;;
545;SDS011;259;53.304;9.816;2023-02-01T06:42:01;15.50;;;8.40;;
545;SDS011;259;53.304;9.816;2023-02-01T06:44:28;23.33;;;16.23;;
545;SDS011;259;53.304;9.816;2023-02-01T06:46:53;36.50;;;28.53;;
545;SDS011;259;53.304;9.816;2023-02-01T06:49:19;40.80;;;22.87;;
545;SDS011;259;53.304;9.816;2023-02-01T06:51:46;41.13;;;22.00;;
545;SDS011;259;53.304;9.816;2023-02-01T06:54:12;30.97;;;20.17;;
545;SDS011;259;53.304;9.816;2023-02-01T06:56:37;32.23;;;20.70;;
545;SDS011;259;53.304;9.816;2023-02-01T06:59:04;25.20;;;17.10;;
545;SDS011;259;53.304;9.816;2023-02-01T07:01:30;39.83;;;16.80;;
545;SDS011;259;53.304;9.816;2023-02-01T07:03:57;25.83;;;15.03;;
545;SDS011;259;53.304;9.816;2023-02-01T07:06:22;23.37;;;14.10;;
545;SDS011;259;53.304;9.816;2023-02-01T07:08:48;26.85;;;13.82;;
545;SDS011;259;53.304;9.816;2023-02-01T07:11:14;27.23;;;13.67;;
545;SDS011;259;53.304;9.816;2023-02-01T07:13:42;20.90;;;11.60;;
545;SDS011;259;53.304;9.816;2023-02-01T07:16:15;30.20;;;11.83;;
545;SDS011;259;53.304;9.816;2023-02-01T07:18:43;19.37;;;9.30;;
545;SDS011;259;53.304;9.816;2023-02-01T07:21:10;17.50;;;10.00;;
545;SDS011;259;53.304;9.816;2023-02-01T07:23:36;22.10;;;8.83;;
545;SDS011;259;53.304;9.816;2023-02-01T07:26:04;35.47;;;10.33;;
545;SDS011;259;53.304;9.816;2023-02-01T07:28:32;20.07;;;7.10;;
545;SDS011;259;53.304;9.816;2023-02-01T07:31:06;16.67;;;7.77;;
545;SDS011;259;53.304;9.816;2023-02-01T07:33:40;20.40;;;6.70;;
545;SDS011;259;53.304;9.816;2023-02-01T07:36:06;19.17;;;7.07;;
545;SDS011;259;53.304;9.816;2023-02-01T07:38:37;15.40;;;7.10;;
545;SDS011;259;53.304;9.816;2023-02-01T07:41:03;12.70;;;5.73;;
545;SDS011;259;53.304;9.816;2023-02-01T07:43:30;9.67;;;5.00;;
545;SDS011;259;53.304;9.816;2023-02-01T07:45:58;11.40;;;4.70;;
545;SDS011;259;53.304;9.816;2023-02-01T07:48:24;6.50;;;4.17;;
545;SDS011;259;53.304;9.816;2023-02-01T07:50:57;9.17;;;4.57;;
545;SDS011;259;53.304;9.816;2023-02-01T07:53:23;8.10;;;3.83;;
545;SDS011;259;53.304;9.816;2023-02-01T07:55:49;6.53;;;3.70;;
545;SDS011;259;53.304;9.816;2023-02-01T07:58:15;6.70;;;4.30;;
545;SDS011;259;53.304;9.816;2023-02-01T08:00:40;9.87;;;3.67;;
545;SDS011;259;53.304;9.816;2023-02-01T08:03:25;16.43;;;4.20;;
545;SDS011;259;53.304;9.816;2023-02-01T08:05:54;11.80;;;3.93;;
545;SDS011;259;53.304;9.816;2023-02-01T08:08:20;16.47;;;7.17;;
545;SDS011;259;53.304;9.816;2023-02-01T08:10:47;12.23;;;5.00;;
545;SDS011;259;53.304;9.816;2023-02-01T08:13:13;12.40;;;4.20;;
545;SDS011;259;53.304;9.816;2023-02-01T08:15:39;11.30;;;4.97;;
545;SDS011;259;53.304;9.816;2023-02-01T08:18:05;8.27;;;3.77;;
545;SDS011;259;53.304;9.816;2023-02-01T08:20:31;8.63;;;3.63;;
545;SDS011;259;53.304;9.816;2023-02-01T08:22:59;16.70;;;5.20;;
545;SDS011;259;53.304;9.816;2023-02-01T08:25:25;11.90;;;4.63;;
545;SDS011;259;53.304;9.816;2023-02-01T08:27:50;10.80;;;3.73;;
545;SDS011;259;53.304;9.816;2023-02-01T08:30:18;21.40;;;5.10;;
545;SDS011;259;53.304;9.816;2023-02-01T08:32:44;7.13;;;3.53;;
545;SDS011;259;53.304;9.816;2023-02-01T08:35:10;7.30;;;3.43;;
545;SDS011;259;53.304;9.816;2023-02-01T08:37:35;12.20;;;3.43;;
545;SDS011;259;53.304;9.816;2023-02-01T08:40:01;9.53;;;3.80;;
545;SDS011;259;53.304;9.816;2023-02-01T08:42:28;12.23;;;3.30;;
545;SDS011;259;53.304;9.816;2023-02-01T08:45:12;4.00;;;2.37;;
545;SDS011;259;53.304;9.816;2023-02-01T08:47:38;4.93;;;3.10;;
545;SDS011;259;53.304;9.816;2023-02-01T08:50:04;6.27;;;2.60;;
545;SDS011;259;53.304;9.816;2023-02-01T08:52:31;7.67;;;3.60;;
545;SDS011;259;53.304;9.816;2023-02-01T08:54:56;8.80;;;3.00;;
545;SDS011;259;53.304;9.816;2023-02-01T08:57:22;11.33;;;3.53;;
545;SDS011;259;53.304;9.816;2023-02-01T08:59:48;16.40;;;3.97;;
545;SDS011;259;53.304;9.816;2023-02-01T09:02:14;12.40;;;4.30;;
545;SDS011;259;53.304;9.816;2023-02-01T09:04:41;16.10;;;4.27;;
545;SDS011;259;53.304;9.816;2023-02-01T09:07:10;24.07;;;4.23;;
545;SDS011;259;53.304;9.816;2023-02-01T09:09:37;14.10;;;4.38;;
545;SDS011;259;53.304;9.816;2023-02-01T09:12:03;13.25;;;3.15;;
545;SDS011;259;53.304;9.816;2023-02-01T09:14:30;11.93;;;3.57;;
545;SDS011;259;53.304;9.816;2023-02-01T09:16:56;11.38;;;3.40;;
545;SDS011;259;53.304;9.816;2023-02-01T09:19:21;8.30;;;3.10;;
545;SDS011;259;53.304;9.816;2023-02-01T09:21:47;9.33;;;3.53;;
545;SDS011;259;53.304;9.816;2023-02-01T09:24:13;12.83;;;3.20;;
545;SDS011;259;53.304;9.816;2023-02-01T09:26:39;14.67;;;3.67;;
545;SDS011;259;53.304;9.816;2023-02-01T09:29:05;10.20;;;2.70;;
545;SDS011;259;53.304;9.816;2023-02-01T09:31:37;10.20;;;2.90;;
545;SDS011;259;53.304;9.816;2023-02-01T09:34:05;8.53;;;3.03;;
545;SDS011;259;53.304;9.816;2023-02-01T09:36:32;13.25;;;3.28;;
545;SDS011;259;53.304;9.816;2023-02-01T09:38:58;15.40;;;3.93;;
545;SDS011;259;53.304;9.816;2023-02-01T09:47:12;8.97;;;3.23;;
545;SDS011;259;53.304;9.816;2023-02-01T09:49:54;16.40;;;3.07;;
545;SDS011;259;53.304;9.816;2023-02-01T09:52:34;14.10;;;3.90;;
545;SDS011;259;53.304;9.816;2023-02-01T09:55:20;7.63;;;2.70;;
545;SDS011;259;53.304;9.816;2023-02-01T09:58:39;8.03;;;2.73;;
545;SDS011;259;53.304;9.816;2023-02-01T10:01:15;11.80;;;3.53;;
545;SDS011;259;53.304;9.816;2023-02-01T10:03:46;10.23;;;3.53;;
545;SDS011;259;53.304;9.816;2023-02-01T10:06:29;13.13;;;2.80;;
545;SDS011;259;53.304;9.816;2023-02-01T10:15:13;19.77;;;4.20;;
545;SDS011;259;53.304;9.816;2023-02-01T10:18:00;10.87;;;2.50;;
545;SDS011;259;53.304;9.816;2023-02-01T10:26:51;13.60;;;3.97;;
545;SDS011;259;53.304;9.816;2023-02-01T10:29:27;20.83;;;3.67;;
545;SDS011;259;53.304;9.816;2023-02-01T10:32:17;16.47;;;3.50;;
545;SDS011;259;53.304;9.816;2023-02-01T10:34:57;9.03;;;2.93;;
545;SDS011;259;53.304;9.816;2023-02-01T10:39:57;9.67;;;2.77;;
545;SDS011;259;53.304;9.816;2023-02-01T10:42:30;12.33;;;2.87;;
545;SDS011;259;53.304;9.816;2023-02-01T10:44:57;6.93;;;2.83;;
545;SDS011;259;53.304;9.816;2023-02-01T10:47:24;12.50;;;2.80;;
545;SDS011;259;53.304;9.816;2023-02-01T10:52:51;7.60;;;2.93;;
545;SDS011;259;53.304;9.816;2023-02-01T10:55:33;8.17;;;2.80;;
545;SDS011;259;53.304;9.816;2023-02-01T10:58:15;12.07;;;2.43;;
545;SDS011;259;53.304;9.816;2023-02-01T11:00:55;10.17;;;2.30;;
545;SDS011;259;53.304;9.816;2023-02-01T11:08:48;7.53;;;2.90;;
545;SDS011;259;53.304;9.816;2023-02-01T11:11:20;6.53;;;2.63;;
545;SDS011;259;53.304;9.816;2023-02-01T11:13:52;8.83;;;2.47;;
545;SDS011;259;53.304;9.816;2023-02-01T11:16:28;8.67;;;2.30;;
545;SDS011;259;53.304;9.816;2023-02-01T11:19:02;5.70;;;2.40;;
545;SDS011;259;53.304;9.816;2023-02-01T11:21:29;7.47;;;3.10;;
545;SDS011;259;53.304;9.816;2023-02-01T11:23:55;11.30;;;2.53;;
545;SDS011;259;53.304;9.816;2023-02-01T11:26:28;10.10;;;2.20;;
545;SDS011;259;53.304;9.816;2023-02-01T11:29:04;6.50;;;2.40;;
545;SDS011;259;53.304;9.816;2023-02-01T11:31:36;7.03;;;1.97;;
545;SDS011;259;53.304;9.816;2023-02-01T11:34:07;4.30;;;1.73;;
545;SDS011;259;53.304;9.816;2023-02-01T11:36:39;7.63;;;2.53;;
545;SDS011;259;53.304;9.816;2023-02-01T11:41:41;7.13;;;3.20;;
545;SDS011;259;53.304;9.816;2023-02-01T11:44:43;6.53;;;2.27;;
545;SDS011;259;53.304;9.816;2023-02-01T11:50:55;5.37;;;1.97;;
545;SDS011;259;53.304;9.816;2023-02-01T11:56:37;7.50;;;3.00;;
545;SDS011;259;53.304;9.816;2023-02-01T12:02:37;2.20;;;1.60;;
545;SDS011;259;53.304;9.816;2023-02-01T12:08:31;3.70;;;1.43;;
545;SDS011;259;53.304;9.816;2023-02-01T12:14:32;3.07;;;1.47;;
545;SDS011;259;53.304;9.816;2023-02-01T12:29:07;2.10;;;1.20;;
545;SDS011;259;53.304;9.816;2023-02-01T12:31:59;2.90;;;1.37;;
545;SDS011;259;53.304;9.816;2023-02-01T12:37:41;2.93;;;1.50;;
545;SDS011;259;53.304;9.816;2023-02-01T12:43:45;1.30;;;1.20;;
545;SDS011;259;53.304;9.816;2023-02-01T12:46:29;1.57;;;1.07;;
545;SDS011;259;53.304;9.816;2023-02-01T12:49:00;1.10;;;1.00;;
545;SDS011;259;53.304;9.816;2023-02-01T12:51:33;1.67;;;0.80;;
545;SDS011;259;53.304;9.816;2023-02-01T12:57:28;1.50;;;1.13;;
545;SDS011;259;53.304;9.816;2023-02-01T13:00:13;1.00;;;0.90;;
545;SDS011;259;53.304;9.816;2023-02-01T13:02:52;0.90;;;0.63;;
545;SDS011;259;53.304;9.816;2023-02-01T13:05:36;1.20;;;0.90;;
545;SDS011;259;53.304;9.816;2023-02-01T13:11:43;1.53;;;1.00;;
545;SDS011;259;53.304;9.816;2023-02-01T13:17:16;1.10;;;0.80;;
545;SDS011;259;53.304;9.816;2023-02-01T13:19:57;0.97;;;0.70;;
545;SDS011;259;53.304;9.816;2023-02-01T13:22:43;1.33;;;0.93;;
545;SDS011;259;53.304;9.816;2023-02-01T13:27:49;1.30;;;0.97;;
545;SDS011;259;53.304;9.816;2023-02-01T13:42:30;6.63;;;1.93;;
545;SDS011;259;53.304;9.816;2023-02-01T13:45:02;6.23;;;0.97;;
545;SDS011;259;53.304;9.816;2023-02-01T13:47:31;1.00;;;0.83;;
545;SDS011;259;53.304;9.816;2023-02-01T13:50:16;3.17;;;0.90;;
545;SDS011;259;53.304;9.816;2023-02-01T13:52:56;8.80;;;1.80;;
545;SDS011;259;53.304;9.816;2023-02-01T13:55:33;7.33;;;2.13;;
545;SDS011;259;53.304;9.816;2023-02-01T13:58:20;8.13;;;1.87;;
545;SDS011;259;53.304;9.816;2023-02-01T14:03:52;12.40;;;2.10;;
545;SDS011;259;53.304;9.816;2023-02-01T14:11:58;7.70;;;1.60;;
545;SDS011;259;53.304;9.816;2023-02-01T14:15:20;10.40;;;1.70;;
545;SDS011;259;53.304;9.816;2023-02-01T14:17:53;7.22;;;1.80;;
545;SDS011;259;53.304;9.816;2023-02-01T14:23:11;11.80;;;2.40;;
545;SDS011;259;53.304;9.816;2023-02-01T14:25:41;14.23;;;2.40;;
545;SDS011;259;53.304;9.816;2023-02-01T14:28:11;15.70;;;1.97;;
545;SDS011;259;53.304;9.816;2023-02-01T14:30:50;8.90;;;1.83;;
545;SDS011;259;53.304;9.816;2023-02-01T14:33:22;7.73;;;2.23;;
545;SDS011;259;53.304;9.816;2023-02-01T14:36:02;9.23;;;1.90;;
545;SDS011;259;53.304;9.816;2023-02-01T14:38:35;16.40;;;2.37;;
545;SDS011;259;53.304;9.816;2023-02-01T14:49:33;5.37;;;1.60;;
545;SDS011;259;53.304;9.816;2023-02-01T14:52:16;11.97;;;1.90;;
545;SDS011;259;53.304;9.816;2023-02-01T14:54:48;8.20;;;1.50;;
545;SDS011;259;53.304;9.816;2023-02-01T14:57:19;6.30;;;1.73;;
545;SDS011;259;53.304;9.816;2023-02-01T14:59:49;9.33;;;1.90;;
545;SDS011;259;53.304;9.816;2023-02-01T15:02:25;8.27;;;1.63;;
545;SDS011;259;53.304;9.816;2023-02-01T15:04:53;6.20;;;1.53;;
545;SDS011;259;53.304;9.816;2023-02-01T15:07:21;4.73;;;1.30;;
545;SDS011;259;53.304;9.816;2023-02-01T15:09:49;6.90;;;1.10;;
545;SDS011;259;53.304;9.816;2023-02-01T15:12:18;7.83;;;1.70;;
545;SDS011;259;53.304;9.816;2023-02-01T15:17:38;4.60;;;1.90;;
545;SDS011;259;53.304;9.816;2023-02-01T15:20:18;10.47;;;1.60;;
545;SDS011;259;53.304;9.816;2023-02-01T15:23:02;11.57;;;1.73;;
545;SDS011;259;53.304;9.816;2023-02-01T15:25:39;10.10;;;2.07;;
545;SDS011;259;53.304;9.816;2023-02-01T15:28:05;13.10;;;2.77;;
545;SDS011;259;53.304;9.816;2023-02-01T15:30:38;8.60;;;2.13;;
545;SDS011;259;53.304;9.816;2023-02-01T15:33:22;7.13;;;1.73;;
545;SDS011;259;53.304;9.816;2023-02-01T15:35:49;7.63;;;2.27;;
545;SDS011;259;53.304;9.816;2023-02-01T15:41:07;7.00;;;1.23;;
545;SDS011;259;53.304;9.816;2023-02-01T15:43:38;7.20;;;1.60;;
545;SDS011;259;53.304;9.816;2023-02-01T15:46:11;6.37;;;1.90;;
545;SDS011;259;53.304;9.816;2023-02-01T15:48:50;10.60;;;2.00;;
545;SDS011;259;53.304;9.816;2023-02-01T15:51:19;6.90;;;1.60;;
545;SDS011;259;53.304;9.816;2023-02-01T15:53:58;9.67;;;2.10;;
545;SDS011;259;53.304;9.816;2023-02-01T15:56:36;7.40;;;2.30;;
545;SDS011;259;53.304;9.816;2023-02-01T15:59:12;4.47;;;1.50;;
545;SDS011;259;53.304;9.816;2023-02-01T16:01:41;4.93;;;1.40;;
545;SDS011;259;53.304;9.816;2023-02-01T16:04:20;5.97;;;1.50;;
545;SDS011;259;53.304;9.816;2023-02-01T16:07:01;6.93;;;1.70;;
545;SDS011;259;53.304;9.816;2023-02-01T16:09:39;5.17;;;1.70;;
545;SDS011;259;53.304;9.816;2023-02-01T16:12:23;5.97;;;1.47;;
545;SDS011;259;53.304;9.816;2023-02-01T16:15:03;5.03;;;1.43;;
545;SDS011;259;53.304;9.816;2023-02-01T16:17:30;6.03;;;2.13;;
545;SDS011;259;53.304;9.816;2023-02-01T16:19:56;2.57;;;1.10;;
545;SDS011;259;53.304;9.816;2023-02-01T16:22:22;3.70;;;1.10;;
545;SDS011;259;53.304;9.816;2023-02-01T16:24:49;4.53;;;1.80;;
545;SDS011;259;53.304;9.816;2023-02-01T16:27:15;9.67;;;1.70;;
545;SDS011;259;53.304;9.816;2023-02-01T16:29:40;6.27;;;1.70;;
545;SDS011;259;53.304;9.816;2023-02-01T16:32:08;14.40;;;1.57;;
545;SDS011;259;53.304;9.816;2023-02-01T16:34:45;12.43;;;2.20;;
545;SDS011;259;53.304;9.816;2023-02-01T16:37:15;4.47;;;1.23;;
545;SDS011;259;53.304;9.816;2023-02-01T16:39:46;5.30;;;2.00;;
545;SDS011;259;53.304;9.816;2023-02-01T16:42:12;6.70;;;2.27;;
545;SDS011;259;53.304;9.816;2023-02-01T16:44:40;8.50;;;2.30;;
545;SDS011;259;53.304;9.816;2023-02-01T16:47:14;4.83;;;1.33;;
545;SDS011;259;53.304;9.816;2023-02-01T16:49:46;3.43;;;1.23;;
545;SDS011;259;53.304;9.816;2023-02-01T16:52:16;3.57;;;1.43;;
545;SDS011;259;53.304;9.816;2023-02-01T16:54:45;4.13;;;1.00;;
545;SDS011;259;53.304;9.816;2023-02-01T16:57:12;10.23;;;1.80;;
545;SDS011;259;53.304;9.816;2023-02-01T16:59:40;4.60;;;1.20;;
545;SDS011;259;53.304;9.816;2023-02-01T17:02:25;8.00;;;1.30;;
545;SDS011;259;53.304;9.816;2023-02-01T17:04:51;3.80;;;1.40;;
545;SDS011;259;53.304;9.816;2023-02-01T17:07:17;4.40;;;1.63;;
545;SDS011;259;53.304;9.816;2023-02-01T17:09:44;2.20;;;1.10;;
545;SDS011;259;53.304;9.816;2023-02-01T17:12:32;1.40;;;0.80;;
545;SDS011;259;53.304;9.816;2023-02-01T17:14:58;3.50;;;1.60;;
545;SDS011;259;53.304;9.816;2023-02-01T17:17:25;3.97;;;1.60;;
545;SDS011;259;53.304;9.816;2023-02-01T17:20:00;2.17;;;1.00;;
545;SDS011;259;53.304;9.816;2023-02-01T17:22:26;5.80;;;1.80;;
545;SDS011;259;53.304;9.816;2023-02-01T17:24:51;3.20;;;1.23;;
545;SDS011;259;53.304;9.816;2023-02-01T17:27:18;2.40;;;1.20;;
545;SDS011;259;53.304;9.816;2023-02-01T17:29:44;3.47;;;1.80;;
545;SDS011;259;53.304;9.816;2023-02-01T17:32:21;1.87;;;1.10;;
545;SDS011;259;53.304;9.816;2023-02-01T17:34:50;2.27;;;1.30;;
545;SDS011;259;53.304;9.816;2023-02-01T17:37:27;3.80;;;1.60;;
545;SDS011;259;53.304;9.816;2023-02-01T17:39:55;1.40;;;0.70;;
545;SDS011;259;53.304;9.816;2023-02-01T17:42:22;1.83;;;1.23;;
545;SDS011;259;53.304;9.816;2023-02-01T17:47:47;3.23;;;1.17;;
545;SDS011;259;53.304;9.816;2023-02-01T17:50:13;1.33;;;0.83;;
545;SDS011;259;53.304;9.816;2023-02-01T17:52:40;1.97;;;1.30;;
545;SDS011;259;53.304;9.816;2023-02-01T17:55:15;5.47;;;1.40;;
545;SDS011;259;53.304;9.816;2023-02-01T17:57:46;1.83;;;1.23;;
545;SDS011;259;53.304;9.816;2023-02-01T18:00:12;1.50;;;1.03;;
545;SDS011;259;53.304;9.816;2023-02-01T18:02:39;1.77;;;1.30;;
545;SDS011;259;53.304;9.816;2023-02-01T18:05:12;1.53;;;1.07;;
545;SDS011;259;53.304;9.816;2023-02-01T18:07:51;2.20;;;1.03;;
545;SDS011;259;53.304;9.816;2023-02-01T18:10:17;1.13;;;0.93;;
545;SDS011;259;53.304;9.816;2023-02-01T18:12:43;1.63;;;1.50;;
545;SDS011;259;53.304;9.816;2023-02-01T18:15:13;2.20;;;1.27;;
545;SDS011;259;53.304;9.816;2023-02-01T18:17:41;1.93;;;1.10;;
545;SDS011;259;53.304;9.816;2023-02-01T18:20:07;1.23;;;0.80;;
545;SDS011;259;53.304;9.816;2023-02-01T18:22:41;1.77;;;0.83;;
545;SDS011;259;53.304;9.816;2023-02-01T18:25:29;3.00;;;1.40;;
545;SDS011;259;53.304;9.816;2023-02-01T18:28:00;1.73;;;0.90;;
545;SDS011;259;53.304;9.816;2023-02-01T18:30:28;3.30;;;1.23;;
545;SDS011;259;53.304;9.816;2023-02-01T18:32:56;1.43;;;1.23;;